createdAt,value
2019-05-17T00:00:16.777Z,10.00
2019-05-17T00:02:46.436Z,10.00
2019-05-17T00:05:13.371Z,10.00
2019-05-17T00:07:40.458Z,10.00
2019-05-17T00:10:07.950Z,10.10
2019-05-17T00:12:36.718Z,10.00
2019-05-17T00:15:09.450Z,10.00
2019-05-17T00:17:37.801Z,10.00
2019-05-17T00:20:06.305Z,9.90
2019-05-17T00:22:33.558Z,10.00
2019-05-17T00:25:00.660Z,10.00
2019-05-17T00:27:27.655Z,10.00
2019-05-17T00:29:56.991Z,10.00
2019-05-17T00:32:23.987Z,10.00
2019-05-17T00:34:51.033Z,10.00
2019-05-17T00:37:18.179Z,10.00
2019-05-17T00:39:47.176Z,10.00
2019-05-17T00:42:17.029Z,10.00
2019-05-17T00:44:44.222Z,10.00
2019-05-17T00:47:11.412Z,10.10
2019-05-17T00:49:38.651Z,10.20
2019-05-17T00:52:07.193Z,10.20
2019-05-17T00:54:36.191Z,10.20
2019-05-17T00:57:03.939Z,10.30
2019-05-17T00:59:31.555Z,10.30
2019-05-17T01:01:58.875Z,10.20
2019-05-17T01:04:27.585Z,10.20
2019-05-17T01:06:56.315Z,10.10
2019-05-17T01:09:23.463Z,10.10
2019-05-17T01:11:50.541Z,10.20
2019-05-17T01:14:17.773Z,10.20
2019-05-17T01:16:47.324Z,10.10
2019-05-17T01:19:13.675Z,10.10
2019-05-17T01:21:40.995Z,10.10
2019-05-17T01:24:07.986Z,10.10
2019-05-17T01:26:37.215Z,10.10
2019-05-17T01:29:04.126Z,10.10
2019-05-17T01:31:31.751Z,10.10
2019-05-17T01:33:58.720Z,10.10
2019-05-17T01:36:26.342Z,10.20
2019-05-17T01:38:53.582Z,10.30
2019-05-17T01:41:20.567Z,10.20
2019-05-17T01:43:48.066Z,10.20
2019-05-17T01:46:17.224Z,10.10
2019-05-17T01:48:44.112Z,10.10
2019-05-17T01:51:17.035Z,10.20
2019-05-17T01:53:44.269Z,10.20
2019-05-17T01:56:11.358Z,10.10
2019-05-17T01:58:38.391Z,10.20
2019-05-17T02:01:07.723Z,10.20
2019-05-17T02:03:34.823Z,10.10
2019-05-17T02:06:03.017Z,10.10
2019-05-17T02:08:30.105Z,10.20
2019-05-17T02:10:58.435Z,10.00
2019-05-17T02:13:26.777Z,10.00
2019-05-17T02:15:56.285Z,10.20
2019-05-17T02:18:23.914Z,10.20
2019-05-17T02:20:50.971Z,10.20
2019-05-17T02:23:18.244Z,10.20
2019-05-17T02:25:47.217Z,10.30
2019-05-17T02:28:14.204Z,10.30
2019-05-17T02:30:44.100Z,10.30
2019-05-17T02:33:12.660Z,10.30
2019-05-17T02:35:42.705Z,10.30
2019-05-17T02:38:09.101Z,10.30
2019-05-17T02:40:36.043Z,10.20
2019-05-17T02:43:03.702Z,10.20
2019-05-17T02:45:32.723Z,10.20
2019-05-17T02:48:03.973Z,10.40
2019-05-17T02:50:33.198Z,10.40
2019-05-17T02:52:59.255Z,10.30
2019-05-17T02:55:26.275Z,10.30
2019-05-17T02:57:53.246Z,10.40
2019-05-17T03:00:23.910Z,10.30
2019-05-17T03:02:53.630Z,10.40
2019-05-17T03:05:22.965Z,10.20
2019-05-17T03:07:48.774Z,10.30
2019-05-17T03:10:24.116Z,10.30
2019-05-17T03:12:45.163Z,10.40
2019-05-17T03:15:13.117Z,10.30
2019-05-17T03:17:43.400Z,10.20
2019-05-17T03:20:12.838Z,10.30
2019-05-17T03:22:43.405Z,10.20
2019-05-17T03:25:13.216Z,10.20
2019-05-17T03:27:38.935Z,10.10
2019-05-17T03:30:06.330Z,10.20
2019-05-17T03:32:36.373Z,10.10
2019-05-17T03:35:06.955Z,10.10
2019-05-17T03:37:37.690Z,10.10
2019-05-17T03:40:21.689Z,10.20
2019-05-17T03:42:33.249Z,10.20
2019-05-17T03:45:02.893Z,10.20
2019-05-17T03:47:32.730Z,10.20
2019-05-17T03:49:58.583Z,10.40
2019-05-17T03:52:25.902Z,10.40
2019-05-17T03:54:53.530Z,10.30
2019-05-17T03:57:23.682Z,10.40
2019-05-17T03:59:52.270Z,10.40
2019-05-17T04:02:18.554Z,10.30
2019-05-17T04:04:45.824Z,10.30
2019-05-17T04:07:13.016Z,10.30
2019-05-17T04:09:43.469Z,10.30
2019-05-17T04:12:13.322Z,10.30
2019-05-17T04:14:38.783Z,10.30
2019-05-17T04:17:06.847Z,10.30
2019-05-17T04:19:34.281Z,10.40
2019-05-17T04:22:03.586Z,10.30
2019-05-17T04:24:32.436Z,10.30
2019-05-17T04:27:03.201Z,10.20
2019-05-17T04:29:28.876Z,10.30
2019-05-17T04:31:55.979Z,10.40
2019-05-17T04:34:23.179Z,10.40
2019-05-17T04:36:52.267Z,10.40
2019-05-17T04:39:22.414Z,10.50
2019-05-17T04:41:51.128Z,10.60
2019-05-17T04:44:17.559Z,10.50
2019-05-17T04:46:44.523Z,10.60
2019-05-17T04:49:13.866Z,10.60
2019-05-17T04:51:43.727Z,10.40
2019-05-17T04:54:09.451Z,10.40
2019-05-17T04:56:36.695Z,10.50
2019-05-17T04:59:04.006Z,10.50
2019-05-17T05:01:33.024Z,10.40
2019-05-17T05:04:03.507Z,10.50
2019-05-17T05:06:32.570Z,10.50
2019-05-17T05:09:02.328Z,10.60
2019-05-17T05:11:28.422Z,10.50
2019-05-17T05:13:55.523Z,10.60
2019-05-17T05:16:22.881Z,10.70
2019-05-17T05:18:52.045Z,10.70
2019-05-17T05:21:19.231Z,10.70
2019-05-17T05:23:47.654Z,10.90
2019-05-17T05:26:14.687Z,10.90
2019-05-17T05:28:42.101Z,10.90
2019-05-17T05:31:09.414Z,10.80
2019-05-17T05:33:36.540Z,10.70
2019-05-17T05:36:03.879Z,10.70
2019-05-17T05:38:31.963Z,10.70
2019-05-17T05:41:01.607Z,10.70
2019-05-17T05:43:28.727Z,10.70
2019-05-17T05:45:56.042Z,10.60
2019-05-17T05:48:23.642Z,10.70
2019-05-17T05:50:52.096Z,10.70
2019-05-17T05:53:21.650Z,10.70
2019-05-17T05:55:48.288Z,10.70
2019-05-17T05:58:15.542Z,10.80
2019-05-17T06:00:43.140Z,10.70
2019-05-17T06:03:12.006Z,10.80
2019-05-17T06:05:41.954Z,10.90
2019-05-17T06:08:08.327Z,10.90
2019-05-17T06:10:35.415Z,10.90
2019-05-17T06:13:03.312Z,10.90
2019-05-17T06:15:32.054Z,11.00
2019-05-17T06:17:59.313Z,11.00
2019-05-17T06:20:26.295Z,11.00
2019-05-17T06:22:53.595Z,11.10
2019-05-17T06:25:23.388Z,11.20
2019-05-17T06:27:51.980Z,11.30
2019-05-17T06:30:21.805Z,11.40
2019-05-17T06:32:48.002Z,11.50
2019-05-17T06:35:15.319Z,11.50
2019-05-17T06:37:42.713Z,11.60
2019-05-17T06:40:13.223Z,11.50
2019-05-17T06:42:44.753Z,11.60
2019-05-17T06:45:12.224Z,11.60
2019-05-17T06:47:38.910Z,11.60
2019-05-17T06:50:06.228Z,11.60
2019-05-17T06:52:33.277Z,11.70
2019-05-17T06:55:05.335Z,11.80
2019-05-17T06:57:32.462Z,11.80
2019-05-17T07:00:02.470Z,11.90
2019-05-17T07:02:30.840Z,11.80
2019-05-17T07:05:01.677Z,11.80
2019-05-17T07:07:30.680Z,11.80
2019-05-17T07:10:00.472Z,11.90
2019-05-17T07:12:27.579Z,11.90
2019-05-17T07:14:54.819Z,11.90
2019-05-17T07:17:22.959Z,11.90
2019-05-17T07:19:50.883Z,12.00
2019-05-17T07:22:21.000Z,11.90
2019-05-17T07:24:47.530Z,11.80
2019-05-17T07:27:15.043Z,11.80
2019-05-17T07:29:42.001Z,11.80
2019-05-17T07:32:09.792Z,12.00
2019-05-17T07:34:39.578Z,12.10
2019-05-17T07:37:06.512Z,11.90
2019-05-17T07:39:33.545Z,11.90
2019-05-17T07:42:01.338Z,11.90
2019-05-17T07:44:29.518Z,12.00
2019-05-17T07:46:56.729Z,12.10
2019-05-17T07:49:24.295Z,12.20
2019-05-17T07:51:51.518Z,12.20
2019-05-17T07:54:19.749Z,12.20
2019-05-17T07:56:47.269Z,12.20
2019-05-17T07:59:14.459Z,12.20
2019-05-17T08:01:41.446Z,12.40
2019-05-17T08:04:10.030Z,12.50
2019-05-17T08:06:40.006Z,12.60
2019-05-17T08:09:06.643Z,12.70
2019-05-17T08:11:33.927Z,12.80
2019-05-17T08:14:01.286Z,12.80
2019-05-17T08:16:30.374Z,12.80
2019-05-17T08:18:57.523Z,12.80
2019-05-17T08:21:24.963Z,12.70
2019-05-17T08:23:51.987Z,12.50
2019-05-17T08:26:20.267Z,12.60
2019-05-17T08:28:49.778Z,12.60
2019-05-17T08:31:16.813Z,12.70
2019-05-17T08:33:44.533Z,12.80
2019-05-17T08:36:12.641Z,12.80
2019-05-17T08:38:39.812Z,12.80
2019-05-17T08:41:07.414Z,12.80
2019-05-17T08:43:42.615Z,12.80
2019-05-17T08:46:04.101Z,12.80
2019-05-17T08:48:31.402Z,12.80
2019-05-17T08:51:00.169Z,12.90
2019-05-17T08:53:30.350Z,13.10
2019-05-17T08:55:57.231Z,13.20
2019-05-17T08:58:24.274Z,13.20
2019-05-17T09:00:51.348Z,13.00
2019-05-17T09:03:19.576Z,12.90
2019-05-17T09:05:46.785Z,12.80
2019-05-17T09:08:13.799Z,13.00
2019-05-17T09:10:41.160Z,13.10
2019-05-17T09:13:12.471Z,13.20
2019-05-17T09:15:39.757Z,13.50
2019-05-17T09:18:09.763Z,13.60
2019-05-17T09:20:36.657Z,13.70
2019-05-17T09:23:05.396Z,14.20
2019-05-17T09:25:32.752Z,14.30
2019-05-17T09:28:00.736Z,14.20
2019-05-17T09:30:32.382Z,14.30
2019-05-17T09:33:12.874Z,14.50
2019-05-17T09:35:52.576Z,14.60
2019-05-17T09:38:20.387Z,14.80
2019-05-17T09:40:53.911Z,14.80
2019-05-17T09:43:21.138Z,14.80
2019-05-17T09:45:50.821Z,15.00
2019-05-17T09:48:21.119Z,14.90
2019-05-17T09:50:54.206Z,14.80
2019-05-17T09:53:31.939Z,14.90
2019-05-17T09:56:05.338Z,14.90
2019-05-17T09:58:39.512Z,14.80
2019-05-17T10:01:05.924Z,14.80
2019-05-17T10:03:43.329Z,15.10
2019-05-17T10:06:11.334Z,15.10
2019-05-17T10:08:40.307Z,15.30
2019-05-17T10:11:09.653Z,15.30
2019-05-17T10:13:37.046Z,15.30
2019-05-17T10:16:04.571Z,15.50
2019-05-17T10:18:31.747Z,15.60
2019-05-17T10:20:59.880Z,15.70
2019-05-17T10:23:27.135Z,15.90
2019-05-17T10:25:54.438Z,16.00
2019-05-17T10:28:21.492Z,15.90
2019-05-17T10:30:52.293Z,16.00
2019-05-17T10:33:20.049Z,16.30
2019-05-17T10:35:49.554Z,16.30
2019-05-17T10:38:16.249Z,16.20
2019-05-17T10:40:43.630Z,15.90
2019-05-17T10:43:10.810Z,15.60
2019-05-17T10:45:40.055Z,15.80
2019-05-17T10:48:09.925Z,16.00
2019-05-17T10:50:36.478Z,16.40
2019-05-17T10:53:03.768Z,16.60
2019-05-17T10:55:31.186Z,16.70
2019-05-17T10:58:00.320Z,16.70
2019-05-17T11:00:30.125Z,16.60
2019-05-17T11:02:56.289Z,16.70
2019-05-17T11:05:23.467Z,16.50
2019-05-17T11:07:50.735Z,16.40
2019-05-17T11:10:19.477Z,16.40
2019-05-17T11:12:46.660Z,16.50
2019-05-17T11:15:14.359Z,16.40
2019-05-17T11:17:41.599Z,16.40
2019-05-17T11:20:10.834Z,16.40
2019-05-17T11:22:38.206Z,16.30
2019-05-17T11:25:05.911Z,16.30
2019-05-17T11:27:36.435Z,16.40
2019-05-17T11:30:05.571Z,16.30
2019-05-17T11:32:33.453Z,16.30
2019-05-17T11:35:00.563Z,16.50
2019-05-17T11:37:27.646Z,16.60
2019-05-17T11:39:54.849Z,16.90
2019-05-17T11:42:21.878Z,17.20
2019-05-17T11:44:48.955Z,17.40
2019-05-17T11:47:15.935Z,17.50
2019-05-17T11:49:43.406Z,17.30
2019-05-17T11:52:11.024Z,17.40
2019-05-17T11:54:38.104Z,17.30
2019-05-17T11:57:05.475Z,17.20
2019-05-17T11:59:36.085Z,17.20
2019-05-17T12:02:03.262Z,17.00
2019-05-17T12:04:30.385Z,16.80
2019-05-17T12:06:57.576Z,16.70
2019-05-17T12:09:36.549Z,16.70
2019-05-17T12:11:54.075Z,16.40
2019-05-17T12:14:22.194Z,16.30
2019-05-17T12:16:49.273Z,16.30
2019-05-17T12:19:17.814Z,16.30
2019-05-17T12:21:44.868Z,16.40
2019-05-17T12:24:11.977Z,16.50
2019-05-17T12:26:39.138Z,16.50
2019-05-17T12:29:06.695Z,16.60
2019-05-17T12:31:34.113Z,16.90
2019-05-17T12:34:01.402Z,17.00
2019-05-17T12:36:29.070Z,17.00
2019-05-17T12:38:56.278Z,17.00
2019-05-17T12:41:23.364Z,17.00
2019-05-17T12:43:50.757Z,17.30
2019-05-17T12:46:18.211Z,17.50
2019-05-17T12:48:45.561Z,17.70
2019-05-17T12:51:12.895Z,17.70
2019-05-17T12:53:40.011Z,17.80
2019-05-17T12:56:07.019Z,17.90
2019-05-17T12:58:34.750Z,17.90
2019-05-17T13:01:01.773Z,17.70
2019-05-17T13:03:30.082Z,17.90
2019-05-17T13:05:57.167Z,18.10
2019-05-17T13:08:24.695Z,18.20
2019-05-17T13:10:52.370Z,18.40
2019-05-17T13:13:20.470Z,18.50
2019-05-17T13:15:47.543Z,18.40
2019-05-17T13:18:14.643Z,18.40
2019-05-17T13:20:41.616Z,18.40
2019-05-17T13:23:08.693Z,18.60
2019-05-17T13:25:36.213Z,18.80
2019-05-17T13:28:03.618Z,18.80
2019-05-17T13:30:31.440Z,18.70
2019-05-17T13:32:58.806Z,18.80
2019-05-17T13:35:25.874Z,19.40
2019-05-17T13:37:53.081Z,19.60
2019-05-17T13:40:20.429Z,19.60
2019-05-17T13:42:47.905Z,19.20
2019-05-17T13:45:15.172Z,19.10
2019-05-17T13:47:42.171Z,19.00
2019-05-17T13:50:09.802Z,18.80
2019-05-17T13:52:38.640Z,18.80
2019-05-17T13:55:06.378Z,18.60
2019-05-17T13:57:33.622Z,18.60
2019-05-17T14:00:00.646Z,18.50
2019-05-17T14:02:27.646Z,18.50
2019-05-17T14:04:54.896Z,18.50
2019-05-17T14:07:22.003Z,18.40
2019-05-17T14:09:49.041Z,18.40
2019-05-17T14:12:16.203Z,18.20
2019-05-17T14:14:43.215Z,18.30
2019-05-17T14:17:10.379Z,18.20
2019-05-17T14:19:37.814Z,18.20
2019-05-17T14:22:04.938Z,18.20
2019-05-17T14:24:32.043Z,18.10
2019-05-17T14:26:59.208Z,18.00
2019-05-17T14:29:26.400Z,18.10
2019-05-17T14:31:53.816Z,18.30
2019-05-17T14:34:20.931Z,18.30
2019-05-17T14:36:48.373Z,18.20
2019-05-17T14:39:15.349Z,18.10
2019-05-17T14:41:42.440Z,18.10
2019-05-17T14:44:09.416Z,18.20
2019-05-17T14:46:36.436Z,18.20
2019-05-17T14:49:03.507Z,18.10
2019-05-17T14:51:30.507Z,18.40
2019-05-17T14:53:57.928Z,18.80
2019-05-17T14:56:25.360Z,19.50
2019-05-17T14:58:52.351Z,19.60
2019-05-17T15:01:19.334Z,19.60
2019-05-17T15:03:46.627Z,19.90
2019-05-17T15:06:13.677Z,20.20
2019-05-17T15:08:42.258Z,19.90
2019-05-17T15:11:09.912Z,19.90
2019-05-17T15:13:36.979Z,19.90
2019-05-17T15:16:04.416Z,19.70
2019-05-17T15:18:31.666Z,19.80
2019-05-17T15:20:58.790Z,20.40
2019-05-17T15:23:26.278Z,20.50
2019-05-17T15:25:53.731Z,20.10
2019-05-17T15:28:21.004Z,20.20
2019-05-17T15:30:48.059Z,20.10
2019-05-17T15:33:15.065Z,19.50
2019-05-17T15:35:42.397Z,19.00
2019-05-17T15:38:11.209Z,19.10
2019-05-17T15:40:38.779Z,19.60
2019-05-17T15:43:05.963Z,20.00
2019-05-17T15:45:33.278Z,20.20
2019-05-17T15:48:00.339Z,20.40
2019-05-17T15:50:27.503Z,20.30
2019-05-17T15:52:54.706Z,19.90
2019-05-17T15:55:21.853Z,20.00
2019-05-17T15:57:49.131Z,20.80
2019-05-17T16:00:16.617Z,20.40
2019-05-17T16:02:44.694Z,20.00
2019-05-17T16:05:12.439Z,19.90
2019-05-17T16:07:39.440Z,20.00
2019-05-17T16:10:07.748Z,20.60
2019-05-17T16:12:34.995Z,21.20
2019-05-17T16:15:02.231Z,21.50
2019-05-17T16:17:30.320Z,21.80
2019-05-17T16:19:57.663Z,22.10
2019-05-17T16:22:24.617Z,22.30
2019-05-17T16:24:52.021Z,22.30
2019-05-17T16:27:19.144Z,22.40
2019-05-17T16:29:47.573Z,22.50
2019-05-17T16:32:14.547Z,22.30
2019-05-17T16:34:41.540Z,22.10
2019-05-17T16:37:08.539Z,22.10
2019-05-17T16:39:35.890Z,22.30
2019-05-17T16:42:03.389Z,22.50
2019-05-17T16:44:31.476Z,22.80
2019-05-17T16:46:58.696Z,22.50
2019-05-17T16:49:28.425Z,22.90
2019-05-17T16:51:54.797Z,22.60
2019-05-17T16:54:21.879Z,22.10
2019-05-17T16:56:49.239Z,22.10
2019-05-17T16:59:16.760Z,22.20
2019-05-17T17:01:44.130Z,22.00
2019-05-17T17:04:11.248Z,21.80
2019-05-17T17:06:38.251Z,21.20
2019-05-17T17:09:06.879Z,21.20
2019-05-17T17:11:34.245Z,21.00
2019-05-17T17:14:01.627Z,21.40
2019-05-17T17:16:28.724Z,21.50
2019-05-17T17:18:55.698Z,21.70
2019-05-17T17:21:23.154Z,21.80
2019-05-17T17:23:50.552Z,21.60
2019-05-17T17:26:17.919Z,21.50
2019-05-17T17:28:45.026Z,21.50
2019-05-17T17:31:15.253Z,21.70
2019-05-17T17:33:42.568Z,21.50
2019-05-17T17:36:09.923Z,21.70
2019-05-17T17:38:36.894Z,21.80
2019-05-17T17:41:04.440Z,21.60
2019-05-17T17:43:32.859Z,21.70
2019-05-17T17:46:01.700Z,21.80
2019-05-17T17:48:28.770Z,21.70
2019-05-17T17:50:56.229Z,21.50
2019-05-17T17:53:23.600Z,21.50
2019-05-17T17:55:50.563Z,21.30
2019-05-17T17:58:17.994Z,21.20
2019-05-17T18:00:45.883Z,21.10
2019-05-17T18:03:13.062Z,21.00
2019-05-17T18:05:40.759Z,21.00
2019-05-17T18:08:08.669Z,20.60
2019-05-17T18:10:36.937Z,20.20
2019-05-17T18:13:06.024Z,19.80
2019-05-17T18:15:42.563Z,19.40
2019-05-17T18:18:09.799Z,19.00
2019-05-17T18:20:37.276Z,18.70
2019-05-17T18:23:05.764Z,18.50
2019-05-17T18:25:34.071Z,18.40
2019-05-17T18:28:01.181Z,18.30
2019-05-17T18:30:28.319Z,18.10
2019-05-17T18:32:55.687Z,17.90
2019-05-17T18:35:22.705Z,17.90
2019-05-17T18:37:49.799Z,17.80
2019-05-17T18:40:18.162Z,17.80
2019-05-17T18:42:45.393Z,17.50
2019-05-17T18:45:13.913Z,17.40
2019-05-17T18:47:41.120Z,17.40
2019-05-17T18:50:09.320Z,17.30
2019-05-17T18:52:37.662Z,17.10
2019-05-17T18:55:05.238Z,17.10
2019-05-17T18:57:32.350Z,17.20
2019-05-17T19:00:00.290Z,17.10
2019-05-17T19:02:27.557Z,17.00
2019-05-17T19:04:55.778Z,16.80
2019-05-17T19:07:23.031Z,16.70
2019-05-17T19:09:50.297Z,16.60
2019-05-17T19:12:17.970Z,16.50
2019-05-17T19:14:46.415Z,16.40
2019-05-17T19:17:13.550Z,16.30
2019-05-17T19:19:41.128Z,16.10
2019-05-17T19:22:08.676Z,16.00
2019-05-17T19:24:35.960Z,15.90
2019-05-17T19:27:03.664Z,15.70
2019-05-17T19:29:31.416Z,15.60
2019-05-17T19:31:58.962Z,15.60
2019-05-17T19:34:26.134Z,15.50
2019-05-17T19:36:53.112Z,15.40
2019-05-17T19:39:20.217Z,15.40
2019-05-17T19:41:48.719Z,15.30
2019-05-17T19:44:16.247Z,15.20
2019-05-17T19:46:44.387Z,15.20
2019-05-17T19:49:12.730Z,15.10
2019-05-17T19:51:41.439Z,15.00
2019-05-17T19:54:08.622Z,15.00
2019-05-17T19:56:37.257Z,15.00
2019-05-17T19:59:05.614Z,14.90
2019-05-17T20:01:32.903Z,15.00
2019-05-17T20:04:00.861Z,15.00
2019-05-17T20:06:28.614Z,14.90
2019-05-17T20:08:55.606Z,14.90
2019-05-17T20:11:33.988Z,14.80
2019-05-17T20:13:52.534Z,14.80
2019-05-17T20:16:19.723Z,14.80
2019-05-17T20:18:46.828Z,14.80
2019-05-17T20:21:14.729Z,14.80
2019-05-17T20:23:43.776Z,14.80
2019-05-17T20:26:11.157Z,14.70
2019-05-17T20:28:38.411Z,14.70
2019-05-17T20:31:05.849Z,14.70
2019-05-17T20:33:33.654Z,14.60
2019-05-17T20:36:01.005Z,14.60
2019-05-17T20:38:28.423Z,14.50
2019-05-17T20:40:55.443Z,14.50
2019-05-17T20:43:22.732Z,14.40
2019-05-17T20:45:49.810Z,14.40
2019-05-17T20:48:16.922Z,14.30
2019-05-17T20:50:44.148Z,14.40
2019-05-17T20:53:19.033Z,14.30
2019-05-17T20:55:40.853Z,14.20
2019-05-17T20:58:09.271Z,14.10
2019-05-17T21:00:36.583Z,14.10
2019-05-17T21:03:03.999Z,14.00
2019-05-17T21:05:31.377Z,14.00
2019-05-17T21:07:58.454Z,14.00
2019-05-17T21:10:25.558Z,14.10
2019-05-17T21:12:52.906Z,14.00
2019-05-17T21:15:19.891Z,14.00
2019-05-17T21:17:46.892Z,14.00
2019-05-17T21:20:14.688Z,14.00
2019-05-17T21:22:41.863Z,14.00
2019-05-17T21:25:09.418Z,14.00
2019-05-17T21:27:36.511Z,14.00
2019-05-17T21:30:04.347Z,14.00
2019-05-17T21:32:32.343Z,14.00
2019-05-17T21:34:59.474Z,14.00
2019-05-17T21:37:26.867Z,14.00
2019-05-17T21:39:53.959Z,14.00
2019-05-17T21:42:21.524Z,14.10
2019-05-17T21:44:48.699Z,14.00
2019-05-17T21:47:15.980Z,14.00
2019-05-17T21:49:43.382Z,13.90
2019-05-17T21:52:10.635Z,13.90
2019-05-17T21:54:37.800Z,14.00
2019-05-17T21:57:04.895Z,13.90
2019-05-17T21:59:31.876Z,13.80
2019-05-17T22:01:59.403Z,13.80
2019-05-17T22:04:27.145Z,13.70
2019-05-17T22:06:54.439Z,13.80
2019-05-17T22:09:21.771Z,13.70
2019-05-17T22:11:50.823Z,13.70
2019-05-17T22:14:17.886Z,13.70
2019-05-17T22:16:45.268Z,13.70
2019-05-17T22:19:12.250Z,13.60
2019-05-17T22:21:39.694Z,13.50
2019-05-17T22:24:06.788Z,13.60
2019-05-17T22:26:34.182Z,13.60
2019-05-17T22:29:01.281Z,13.60
2019-05-17T22:31:28.277Z,13.70
2019-05-17T22:33:55.358Z,13.80
2019-05-17T22:36:22.915Z,13.70
2019-05-17T22:38:49.940Z,13.70
2019-05-17T22:41:17.212Z,13.60
2019-05-17T22:43:44.272Z,13.60
2019-05-17T22:46:11.336Z,13.50
2019-05-17T22:48:38.908Z,13.50
2019-05-17T22:51:05.983Z,13.50
2019-05-17T22:53:33.018Z,13.50
2019-05-17T22:56:00.466Z,13.40
2019-05-17T22:58:27.561Z,13.30
2019-05-17T23:00:54.904Z,13.40
2019-05-17T23:03:21.848Z,13.30
2019-05-17T23:05:48.831Z,13.30
2019-05-17T23:08:16.298Z,13.30
2019-05-17T23:10:43.298Z,13.20
2019-05-17T23:13:10.353Z,13.20
2019-05-17T23:16:09.146Z,13.10
2019-05-17T23:18:36.135Z,13.10
2019-05-17T23:21:03.996Z,13.10
2019-05-17T23:23:31.255Z,13.00
2019-05-17T23:25:58.712Z,13.00
2019-05-17T23:28:25.681Z,13.00
2019-05-17T23:30:52.987Z,13.00
2019-05-17T23:33:19.965Z,13.00
2019-05-17T23:35:47.418Z,13.00
2019-05-17T23:38:14.810Z,12.90
2019-05-17T23:40:41.754Z,12.90
2019-05-17T23:43:09.717Z,12.90
2019-05-17T23:45:37.078Z,12.90
2019-05-17T23:48:04.443Z,13.00
2019-05-17T23:50:32.507Z,13.00
2019-05-17T23:52:59.861Z,13.00
2019-05-17T23:55:27.171Z,12.90
2019-05-17T23:57:54.211Z,12.80
